sensor_id;sensor_type;location;lat;lon;timestamp;P1;durP1;ratioP1;P2;durP2;ratioP2
40533;SDS011;26233;51.894;10.192;2023-09-19T00:00:25;1.83;;;1.00;;
40533;SDS011;26233;51.894;10.192;2023-09-19T00:02:52;1.00;;;0.80;;
40533;SDS011;26233;51.894;10.192;2023-09-19T00:05:22;0.77;;;0.77;;
40533;SDS011;26233;51.894;10.192;2023-09-19T00:07:52;0.95;;;0.88;;
40533;SDS011;26233;51.894;10.192;2023-09-19T00:10:23;1.30;;;0.88;;
40533;SDS011;26233;51.894;10.192;2023-09-19T00:12:51;0.93;;;0.90;;
40533;SDS011;26233;51.894;10.192;2023-09-19T00:15:21;0.80;;;0.80;;
40533;SDS011;26233;51.894;10.192;2023-09-19T00:17:48;1.00;;;0.80;;
40533;SDS011;26233;51.894;10.192;2023-09-19T00:20:17;0.77;;;0.77;;
40533;SDS011;26233;51.894;10.192;2023-09-19T00:22:46;0.80;;;0.80;;
40533;SDS011;26233;51.894;10.192;2023-09-19T00:25:14;1.23;;;0.85;;
40533;SDS011;26233;51.894;10.192;2023-09-19T00:27:41;1.20;;;0.90;;
40533;SDS011;26233;51.894;10.192;2023-09-19T00:30:10;0.75;;;0.63;;
40533;SDS011;26233;51.894;10.192;2023-09-19T00:32:46;1.08;;;0.80;;
40533;SDS011;26233;51.894;10.192;2023-09-19T00:35:14;0.77;;;0.77;;
40533;SDS011;26233;51.894;10.192;2023-09-19T00:37:42;0.98;;;0.65;;
40533;SDS011;26233;51.894;10.192;2023-09-19T00:40:09;1.45;;;0.90;;
40533;SDS011;26233;51.894;10.192;2023-09-19T00:42:38;2.03;;;0.80;;
40533;SDS011;26233;51.894;10.192;2023-09-19T00:45:06;0.68;;;0.68;;
40533;SDS011;26233;51.894;10.192;2023-09-19T00:47:36;0.70;;;0.70;;
40533;SDS011;26233;51.894;10.192;2023-09-19T00:50:05;0.73;;;0.73;;
40533;SDS011;26233;51.894;10.192;2023-09-19T00:52:35;0.80;;;0.80;;
40533;SDS011;26233;51.894;10.192;2023-09-19T00:55:05;1.23;;;0.82;;
40533;SDS011;26233;51.894;10.192;2023-09-19T00:57:34;0.63;;;0.63;;
40533;SDS011;26233;51.894;10.192;2023-09-19T01:00:03;1.20;;;1.00;;
40533;SDS011;26233;51.894;10.192;2023-09-19T01:02:33;0.80;;;0.80;;
40533;SDS011;26233;51.894;10.192;2023-09-19T01:05:01;1.13;;;0.80;;
40533;SDS011;26233;51.894;10.192;2023-09-19T01:07:31;0.70;;;0.70;;
40533;SDS011;26233;51.894;10.192;2023-09-19T01:09:59;1.65;;;0.88;;
40533;SDS011;26233;51.894;10.192;2023-09-19T01:12:30;0.70;;;0.70;;
40533;SDS011;26233;51.894;10.192;2023-09-19T01:15:11;0.95;;;0.75;;
40533;SDS011;26233;51.894;10.192;2023-09-19T01:17:48;0.82;;;0.77;;
40533;SDS011;26233;51.894;10.192;2023-09-19T01:20:27;1.10;;;0.85;;
40533;SDS011;26233;51.894;10.192;2023-09-19T01:23:07;1.25;;;0.95;;
40533;SDS011;26233;51.894;10.192;2023-09-19T01:25:50;0.90;;;0.82;;
40533;SDS011;26233;51.894;10.192;2023-09-19T01:28:39;0.80;;;0.80;;
40533;SDS011;26233;51.894;10.192;2023-09-19T01:31:22;0.80;;;0.75;;
40533;SDS011;26233;51.894;10.192;2023-09-19T01:33:58;1.00;;;0.90;;
40533;SDS011;26233;51.894;10.192;2023-09-19T01:36:29;0.88;;;0.88;;
40533;SDS011;26233;51.894;10.192;2023-09-19T01:39:01;1.45;;;1.00;;
40533;SDS011;26233;51.894;10.192;2023-09-19T01:41:38;1.10;;;0.90;;
40533;SDS011;26233;51.894;10.192;2023-09-19T01:44:22;1.98;;;1.17;;
40533;SDS011;26233;51.894;10.192;2023-09-19T01:46:58;1.20;;;0.90;;
40533;SDS011;26233;51.894;10.192;2023-09-19T01:49:33;1.88;;;1.25;;
40533;SDS011;26233;51.894;10.192;2023-09-19T01:52:09;1.23;;;0.90;;
40533;SDS011;26233;51.894;10.192;2023-09-19T01:54:41;1.23;;;0.88;;
40533;SDS011;26233;51.894;10.192;2023-09-19T01:57:17;1.10;;;1.00;;
40533;SDS011;26233;51.894;10.192;2023-09-19T01:59:54;1.60;;;0.93;;
40533;SDS011;26233;51.894;10.192;2023-09-19T02:02:32;1.05;;;0.95;;
40533;SDS011;26233;51.894;10.192;2023-09-19T02:05:01;2.17;;;0.93;;
40533;SDS011;26233;51.894;10.192;2023-09-19T02:07:28;0.90;;;0.88;;
40533;SDS011;26233;51.894;10.192;2023-09-19T02:09:56;1.08;;;0.98;;
40533;SDS011;26233;51.894;10.192;2023-09-19T02:12:25;1.33;;;1.02;;
40533;SDS011;26233;51.894;10.192;2023-09-19T02:14:52;1.17;;;1.05;;
40533;SDS011;26233;51.894;10.192;2023-09-19T02:17:19;1.10;;;1.00;;
40533;SDS011;26233;51.894;10.192;2023-09-19T02:19:47;1.52;;;1.05;;
40533;SDS011;26233;51.894;10.192;2023-09-19T02:22:14;1.10;;;1.00;;
40533;SDS011;26233;51.894;10.192;2023-09-19T02:24:41;1.08;;;0.90;;
40533;SDS011;26233;51.894;10.192;2023-09-19T02:27:08;1.00;;;0.90;;
40533;SDS011;26233;51.894;10.192;2023-09-19T02:29:37;0.93;;;0.90;;
40533;SDS011;26233;51.894;10.192;2023-09-19T02:32:04;1.33;;;1.08;;
40533;SDS011;26233;51.894;10.192;2023-09-19T02:34:32;1.27;;;1.10;;
40533;SDS011;26233;51.894;10.192;2023-09-19T02:37:02;1.02;;;1.00;;
40533;SDS011;26233;51.894;10.192;2023-09-19T02:39:31;1.20;;;1.10;;
40533;SDS011;26233;51.894;10.192;2023-09-19T02:41:58;1.20;;;1.10;;
40533;SDS011;26233;51.894;10.192;2023-09-19T02:44:25;1.88;;;1.30;;
40533;SDS011;26233;51.894;10.192;2023-09-19T02:46:52;2.05;;;1.20;;
40533;SDS011;26233;51.894;10.192;2023-09-19T02:49:19;1.40;;;1.17;;
40533;SDS011;26233;51.894;10.192;2023-09-19T02:51:47;1.90;;;1.45;;
40533;SDS011;26233;51.894;10.192;2023-09-19T02:54:15;1.30;;;1.20;;
40533;SDS011;26233;51.894;10.192;2023-09-19T02:56:42;1.30;;;1.20;;
40533;SDS011;26233;51.894;10.192;2023-09-19T02:59:10;1.52;;;1.35;;
40533;SDS011;26233;51.894;10.192;2023-09-19T03:01:37;1.40;;;1.30;;
40533;SDS011;26233;51.894;10.192;2023-09-19T03:04:04;1.35;;;1.25;;
40533;SDS011;26233;51.894;10.192;2023-09-19T03:06:36;1.40;;;1.30;;
40533;SDS011;26233;51.894;10.192;2023-09-19T03:09:03;1.50;;;1.30;;
40533;SDS011;26233;51.894;10.192;2023-09-19T03:11:40;1.50;;;1.40;;
40533;SDS011;26233;51.894;10.192;2023-09-19T03:14:07;1.30;;;1.20;;
40533;SDS011;26233;51.894;10.192;2023-09-19T03:16:35;1.40;;;1.30;;
40533;SDS011;26233;51.894;10.192;2023-09-19T03:19:02;3.47;;;1.33;;
40533;SDS011;26233;51.894;10.192;2023-09-19T03:21:30;1.50;;;1.40;;
40533;SDS011;26233;51.894;10.192;2023-09-19T03:23:57;1.60;;;1.50;;
40533;SDS011;26233;51.894;10.192;2023-09-19T03:26:24;1.63;;;1.40;;
40533;SDS011;26233;51.894;10.192;2023-09-19T03:28:53;1.70;;;1.60;;
40533;SDS011;26233;51.894;10.192;2023-09-19T03:31:20;1.90;;;1.60;;
40533;SDS011;26233;51.894;10.192;2023-09-19T03:33:47;2.05;;;1.65;;
40533;SDS011;26233;51.894;10.192;2023-09-19T03:36:14;1.75;;;1.50;;
40533;SDS011;26233;51.894;10.192;2023-09-19T03:38:41;2.22;;;1.67;;
40533;SDS011;26233;51.894;10.192;2023-09-19T03:41:08;1.95;;;1.70;;
40533;SDS011;26233;51.894;10.192;2023-09-19T03:43:39;2.15;;;1.85;;
40533;SDS011;26233;51.894;10.192;2023-09-19T03:46:07;1.88;;;1.75;;
40533;SDS011;26233;51.894;10.192;2023-09-19T03:48:34;1.85;;;1.75;;
40533;SDS011;26233;51.894;10.192;2023-09-19T03:51:01;1.65;;;1.55;;
40533;SDS011;26233;51.894;10.192;2023-09-19T03:53:29;1.70;;;1.60;;
40533;SDS011;26233;51.894;10.192;2023-09-19T03:55:56;1.98;;;1.50;;
40533;SDS011;26233;51.894;10.192;2023-09-19T03:58:25;1.88;;;1.67;;
40533;SDS011;26233;51.894;10.192;2023-09-19T04:00:54;3.05;;;1.67;;
40533;SDS011;26233;51.894;10.192;2023-09-19T04:03:23;2.05;;;1.88;;
40533;SDS011;26233;51.894;10.192;2023-09-19T04:05:59;2.53;;;1.70;;
40533;SDS011;26233;51.894;10.192;2023-09-19T04:08:27;2.00;;;1.67;;
40533;SDS011;26233;51.894;10.192;2023-09-19T04:10:55;2.00;;;1.60;;
40533;SDS011;26233;51.894;10.192;2023-09-19T04:13:22;1.70;;;1.60;;
40533;SDS011;26233;51.894;10.192;2023-09-19T04:15:49;2.00;;;1.70;;
40533;SDS011;26233;51.894;10.192;2023-09-19T04:18:16;1.67;;;1.58;;
40533;SDS011;26233;51.894;10.192;2023-09-19T04:20:48;1.90;;;1.70;;
40533;SDS011;26233;51.894;10.192;2023-09-19T04:23:16;2.03;;;1.50;;
40533;SDS011;26233;51.894;10.192;2023-09-19T04:25:45;2.45;;;1.80;;
40533;SDS011;26233;51.894;10.192;2023-09-19T04:28:12;2.67;;;1.75;;
40533;SDS011;26233;51.894;10.192;2023-09-19T04:30:39;2.30;;;2.00;;
40533;SDS011;26233;51.894;10.192;2023-09-19T04:33:06;1.98;;;1.77;;
40533;SDS011;26233;51.894;10.192;2023-09-19T04:35:33;3.00;;;1.90;;
40533;SDS011;26233;51.894;10.192;2023-09-19T04:38:02;2.28;;;2.08;;
40533;SDS011;26233;51.894;10.192;2023-09-19T04:40:32;2.33;;;2.00;;
40533;SDS011;26233;51.894;10.192;2023-09-19T04:42:59;2.75;;;2.08;;
40533;SDS011;26233;51.894;10.192;2023-09-19T04:45:26;1.80;;;1.70;;
40533;SDS011;26233;51.894;10.192;2023-09-19T04:47:54;2.53;;;2.15;;
40533;SDS011;26233;51.894;10.192;2023-09-19T04:50:22;1.98;;;1.83;;
40533;SDS011;26233;51.894;10.192;2023-09-19T04:52:53;1.92;;;1.70;;
40533;SDS011;26233;51.894;10.192;2023-09-19T04:55:21;2.78;;;2.00;;
40533;SDS011;26233;51.894;10.192;2023-09-19T04:57:48;2.75;;;1.98;;
40533;SDS011;26233;51.894;10.192;2023-09-19T05:00:18;2.40;;;2.00;;
40533;SDS011;26233;51.894;10.192;2023-09-19T05:02:49;2.80;;;2.20;;
40533;SDS011;26233;51.894;10.192;2023-09-19T05:05:17;2.08;;;1.88;;
40533;SDS011;26233;51.894;10.192;2023-09-19T05:07:45;3.67;;;1.80;;
40533;SDS011;26233;51.894;10.192;2023-09-19T05:10:12;2.95;;;2.05;;
40533;SDS011;26233;51.894;10.192;2023-09-19T05:12:42;1.88;;;1.65;;
40533;SDS011;26233;51.894;10.192;2023-09-19T05:15:12;2.95;;;1.90;;
40533;SDS011;26233;51.894;10.192;2023-09-19T05:17:40;2.42;;;1.85;;
40533;SDS011;26233;51.894;10.192;2023-09-19T05:20:08;2.80;;;1.95;;
40533;SDS011;26233;51.894;10.192;2023-09-19T05:22:39;2.50;;;2.00;;
40533;SDS011;26233;51.894;10.192;2023-09-19T05:25:06;2.42;;;2.00;;
40533;SDS011;26233;51.894;10.192;2023-09-19T05:27:34;2.30;;;1.80;;
40533;SDS011;26233;51.894;10.192;2023-09-19T05:30:02;3.60;;;2.05;;
40533;SDS011;26233;51.894;10.192;2023-09-19T05:32:32;1.95;;;1.70;;
40533;SDS011;26233;51.894;10.192;2023-09-19T05:34:59;2.97;;;1.83;;
40533;SDS011;26233;51.894;10.192;2023-09-19T05:37:26;3.03;;;1.92;;
40533;SDS011;26233;51.894;10.192;2023-09-19T05:39:54;2.65;;;1.65;;
40533;SDS011;26233;51.894;10.192;2023-09-19T05:42:22;2.03;;;1.77;;
40533;SDS011;26233;51.894;10.192;2023-09-19T05:44:49;3.70;;;2.08;;
40533;SDS011;26233;51.894;10.192;2023-09-19T05:47:17;3.03;;;1.92;;
40533;SDS011;26233;51.894;10.192;2023-09-19T05:49:45;2.15;;;1.75;;
40533;SDS011;26233;51.894;10.192;2023-09-19T05:52:14;3.28;;;2.10;;
40533;SDS011;26233;51.894;10.192;2023-09-19T05:54:42;3.65;;;2.10;;
40533;SDS011;26233;51.894;10.192;2023-09-19T05:57:09;2.00;;;1.80;;
40533;SDS011;26233;51.894;10.192;2023-09-19T05:59:37;2.45;;;1.80;;
40533;SDS011;26233;51.894;10.192;2023-09-19T06:02:05;2.58;;;1.92;;
40533;SDS011;26233;51.894;10.192;2023-09-19T06:04:33;2.80;;;1.98;;
40533;SDS011;26233;51.894;10.192;2023-09-19T06:07:00;2.53;;;2.00;;
40533;SDS011;26233;51.894;10.192;2023-09-19T06:09:27;2.42;;;1.85;;
40533;SDS011;26233;51.894;10.192;2023-09-19T06:11:57;3.60;;;1.80;;
40533;SDS011;26233;51.894;10.192;2023-09-19T06:14:25;3.20;;;1.80;;
40533;SDS011;26233;51.894;10.192;2023-09-19T06:16:52;3.20;;;1.90;;
40533;SDS011;26233;51.894;10.192;2023-09-19T06:19:19;1.98;;;1.50;;
40533;SDS011;26233;51.894;10.192;2023-09-19T06:21:49;2.95;;;1.80;;
40533;SDS011;26233;51.894;10.192;2023-09-19T06:24:16;2.78;;;1.90;;
40533;SDS011;26233;51.894;10.192;2023-09-19T06:26:44;3.65;;;1.50;;
40533;SDS011;26233;51.894;10.192;2023-09-19T06:29:12;3.00;;;2.05;;
40533;SDS011;26233;51.894;10.192;2023-09-19T06:31:39;2.58;;;1.60;;
40533;SDS011;26233;51.894;10.192;2023-09-19T06:34:07;2.13;;;1.80;;
40533;SDS011;26233;51.894;10.192;2023-09-19T06:36:34;2.08;;;1.70;;
40533;SDS011;26233;51.894;10.192;2023-09-19T06:39:02;2.50;;;1.80;;
40533;SDS011;26233;51.894;10.192;2023-09-19T06:41:31;2.78;;;1.73;;
40533;SDS011;26233;51.894;10.192;2023-09-19T06:43:58;3.05;;;1.83;;
40533;SDS011;26233;51.894;10.192;2023-09-19T06:46:26;3.55;;;1.83;;
40533;SDS011;26233;51.894;10.192;2023-09-19T06:48:57;3.05;;;1.67;;
40533;SDS011;26233;51.894;10.192;2023-09-19T06:51:25;3.03;;;1.77;;
40533;SDS011;26233;51.894;10.192;2023-09-19T06:53:52;3.85;;;1.70;;
40533;SDS011;26233;51.894;10.192;2023-09-19T06:56:20;2.45;;;1.70;;
40533;SDS011;26233;51.894;10.192;2023-09-19T06:58:49;2.67;;;1.75;;
40533;SDS011;26233;51.894;10.192;2023-09-19T07:01:16;2.13;;;1.70;;
40533;SDS011;26233;51.894;10.192;2023-09-19T07:03:43;3.03;;;1.77;;
40533;SDS011;26233;51.894;10.192;2023-09-19T07:06:11;3.00;;;1.70;;
40533;SDS011;26233;51.894;10.192;2023-09-19T07:08:38;2.63;;;1.90;;
40533;SDS011;26233;51.894;10.192;2023-09-19T07:11:05;3.58;;;1.63;;
40533;SDS011;26233;51.894;10.192;2023-09-19T07:13:34;2.50;;;1.73;;
40533;SDS011;26233;51.894;10.192;2023-09-19T07:16:01;3.83;;;1.75;;
40533;SDS011;26233;51.894;10.192;2023-09-19T07:18:29;3.22;;;1.75;;
40533;SDS011;26233;51.894;10.192;2023-09-19T07:20:57;2.45;;;1.67;;
40533;SDS011;26233;51.894;10.192;2023-09-19T07:23:30;2.78;;;1.58;;
40533;SDS011;26233;51.894;10.192;2023-09-19T07:25:59;7.13;;;1.98;;
40533;SDS011;26233;51.894;10.192;2023-09-19T07:28:30;2.78;;;1.70;;
40533;SDS011;26233;51.894;10.192;2023-09-19T07:31:02;4.28;;;1.70;;
40533;SDS011;26233;51.894;10.192;2023-09-19T07:33:30;2.50;;;1.70;;
40533;SDS011;26233;51.894;10.192;2023-09-19T07:35:57;3.65;;;1.83;;
40533;SDS011;26233;51.894;10.192;2023-09-19T07:38:24;4.60;;;1.95;;
40533;SDS011;26233;51.894;10.192;2023-09-19T07:40:52;3.67;;;1.70;;
40533;SDS011;26233;51.894;10.192;2023-09-19T07:43:20;2.50;;;1.63;;
40533;SDS011;26233;51.894;10.192;2023-09-19T07:45:47;3.60;;;1.80;;
40533;SDS011;26233;51.894;10.192;2023-09-19T07:48:16;2.13;;;1.67;;
40533;SDS011;26233;51.894;10.192;2023-09-19T07:50:43;3.53;;;1.70;;
40533;SDS011;26233;51.894;10.192;2023-09-19T07:53:10;4.43;;;1.95;;
40533;SDS011;26233;51.894;10.192;2023-09-19T07:55:38;2.53;;;1.80;;
40533;SDS011;26233;51.894;10.192;2023-09-19T07:58:06;6.07;;;2.00;;
40533;SDS011;26233;51.894;10.192;2023-09-19T08:00:33;2.45;;;1.75;;
40533;SDS011;26233;51.894;10.192;2023-09-19T08:03:00;2.10;;;1.50;;
40533;SDS011;26233;51.894;10.192;2023-09-19T08:05:30;4.32;;;2.00;;
40533;SDS011;26233;51.894;10.192;2023-09-19T08:07:58;2.50;;;1.55;;
40533;SDS011;26233;51.894;10.192;2023-09-19T08:10:26;2.45;;;1.65;;
40533;SDS011;26233;51.894;10.192;2023-09-19T08:13:00;3.80;;;1.90;;
40533;SDS011;26233;51.894;10.192;2023-09-19T08:15:27;2.85;;;1.73;;
40533;SDS011;26233;51.894;10.192;2023-09-19T08:17:54;2.55;;;1.60;;
40533;SDS011;26233;51.894;10.192;2023-09-19T08:20:21;1.90;;;1.60;;
40533;SDS011;26233;51.894;10.192;2023-09-19T08:22:50;2.95;;;1.70;;
40533;SDS011;26233;51.894;10.192;2023-09-19T08:25:19;3.03;;;1.63;;
40533;SDS011;26233;51.894;10.192;2023-09-19T08:27:47;3.10;;;1.65;;
40533;SDS011;26233;51.894;10.192;2023-09-19T08:30:15;2.83;;;1.50;;
40533;SDS011;26233;51.894;10.192;2023-09-19T08:32:43;2.20;;;1.55;;
40533;SDS011;26233;51.894;10.192;2023-09-19T08:35:11;2.58;;;1.70;;
40533;SDS011;26233;51.894;10.192;2023-09-19T08:37:39;2.67;;;1.40;;
40533;SDS011;26233;51.894;10.192;2023-09-19T08:40:08;2.88;;;2.00;;
40533;SDS011;26233;51.894;10.192;2023-09-19T08:42:47;4.18;;;1.73;;
40533;SDS011;26233;51.894;10.192;2023-09-19T08:45:15;2.13;;;1.80;;
40533;SDS011;26233;51.894;10.192;2023-09-19T08:47:45;2.83;;;1.60;;
40533;SDS011;26233;51.894;10.192;2023-09-19T08:50:17;3.13;;;1.70;;
40533;SDS011;26233;51.894;10.192;2023-09-19T08:52:51;2.20;;;1.77;;
40533;SDS011;26233;51.894;10.192;2023-09-19T08:55:27;3.33;;;1.70;;
40533;SDS011;26233;51.894;10.192;2023-09-19T08:57:59;2.13;;;1.50;;
40533;SDS011;26233;51.894;10.192;2023-09-19T09:00:31;1.92;;;1.73;;
40533;SDS011;26233;51.894;10.192;2023-09-19T09:02:59;2.25;;;1.55;;
40533;SDS011;26233;51.894;10.192;2023-09-19T09:05:29;4.45;;;1.90;;
40533;SDS011;26233;51.894;10.192;2023-09-19T09:07:58;1.77;;;1.48;;
40533;SDS011;26233;51.894;10.192;2023-09-19T09:10:26;2.55;;;1.70;;
40533;SDS011;26233;51.894;10.192;2023-09-19T09:12:54;2.10;;;1.70;;
40533;SDS011;26233;51.894;10.192;2023-09-19T09:15:21;2.30;;;1.48;;
40533;SDS011;26233;51.894;10.192;2023-09-19T09:17:49;2.78;;;1.75;;
40533;SDS011;26233;51.894;10.192;2023-09-19T09:20:18;2.78;;;1.92;;
40533;SDS011;26233;51.894;10.192;2023-09-19T09:22:51;4.10;;;2.08;;
40533;SDS011;26233;51.894;10.192;2023-09-19T09:25:20;3.05;;;1.80;;
40533;SDS011;26233;51.894;10.192;2023-09-19T09:27:59;2.30;;;1.70;;
40533;SDS011;26233;51.894;10.192;2023-09-19T09:30:33;2.58;;;1.67;;
40533;SDS011;26233;51.894;10.192;2023-09-19T09:33:09;2.15;;;1.67;;
40533;SDS011;26233;51.894;10.192;2023-09-19T09:35:37;2.25;;;1.63;;
40533;SDS011;26233;51.894;10.192;2023-09-19T09:38:17;2.65;;;1.80;;
40533;SDS011;26233;51.894;10.192;2023-09-19T09:40:48;2.78;;;1.80;;
40533;SDS011;26233;51.894;10.192;2023-09-19T09:43:32;3.05;;;1.90;;
40533;SDS011;26233;51.894;10.192;2023-09-19T09:46:11;1.80;;;1.63;;
40533;SDS011;26233;51.894;10.192;2023-09-19T09:48:58;3.45;;;1.98;;
40533;SDS011;26233;51.894;10.192;2023-09-19T09:51:43;3.03;;;1.83;;
40533;SDS011;26233;51.894;10.192;2023-09-19T09:54:24;2.92;;;1.77;;
40533;SDS011;26233;51.894;10.192;2023-09-19T09:56:59;2.58;;;1.70;;
40533;SDS011;26233;51.894;10.192;2023-09-19T09:59:49;3.00;;;1.77;;
40533;SDS011;26233;51.894;10.192;2023-09-19T10:02:19;3.35;;;2.03;;
40533;SDS011;26233;51.894;10.192;2023-09-19T10:04:50;2.70;;;1.90;;
40533;SDS011;26233;51.894;10.192;2023-09-19T10:07:27;2.30;;;1.70;;
40533;SDS011;26233;51.894;10.192;2023-09-19T10:10:01;2.70;;;2.00;;
40533;SDS011;26233;51.894;10.192;2023-09-19T10:12:47;3.58;;;1.85;;
40533;SDS011;26233;51.894;10.192;2023-09-19T10:15:17;3.38;;;1.80;;
40533;SDS011;26233;51.894;10.192;2023-09-19T10:17:46;3.05;;;1.63;;
40533;SDS011;26233;51.894;10.192;2023-09-19T10:20:14;2.20;;;1.70;;
40533;SDS011;26233;51.894;10.192;2023-09-19T10:23:04;2.63;;;1.85;;
40533;SDS011;26233;51.894;10.192;2023-09-19T10:25:38;4.45;;;1.80;;
40533;SDS011;26233;51.894;10.192;2023-09-19T10:28:06;2.22;;;1.70;;
40533;SDS011;26233;51.894;10.192;2023-09-19T10:30:39;3.83;;;1.67;;
40533;SDS011;26233;51.894;10.192;2023-09-19T10:33:10;2.60;;;1.58;;
40533;SDS011;26233;51.894;10.192;2023-09-19T10:35:38;2.72;;;1.70;;
40533;SDS011;26233;51.894;10.192;2023-09-19T10:38:17;1.85;;;1.40;;
40533;SDS011;26233;51.894;10.192;2023-09-19T10:40:48;3.67;;;1.70;;
40533;SDS011;26233;51.894;10.192;2023-09-19T10:43:18;2.63;;;1.75;;
40533;SDS011;26233;51.894;10.192;2023-09-19T10:45:47;2.88;;;1.70;;
40533;SDS011;26233;51.894;10.192;2023-09-19T10:48:17;3.00;;;1.80;;
40533;SDS011;26233;51.894;10.192;2023-09-19T10:50:50;3.08;;;1.75;;
40533;SDS011;26233;51.894;10.192;2023-09-19T10:53:21;2.92;;;1.63;;
40533;SDS011;26233;51.894;10.192;2023-09-19T10:55:50;4.63;;;1.70;;
40533;SDS011;26233;51.894;10.192;2023-09-19T10:58:25;2.97;;;1.80;;
40533;SDS011;26233;51.894;10.192;2023-09-19T11:00:54;2.55;;;1.73;;
40533;SDS011;26233;51.894;10.192;2023-09-19T11:03:26;5.05;;;2.13;;
40533;SDS011;26233;51.894;10.192;2023-09-19T11:06:02;2.70;;;1.67;;
40533;SDS011;26233;51.894;10.192;2023-09-19T11:14:28;2.70;;;1.65;;
40533;SDS011;26233;51.894;10.192;2023-09-19T11:25:54;3.45;;;1.90;;
40533;SDS011;26233;51.894;10.192;2023-09-19T11:28:31;2.72;;;1.70;;
40533;SDS011;26233;51.894;10.192;2023-09-19T11:40:35;4.07;;;1.73;;
40533;SDS011;26233;51.894;10.192;2023-09-19T11:46:05;2.88;;;1.77;;
40533;SDS011;26233;51.894;10.192;2023-09-19T11:48:32;2.53;;;1.63;;
40533;SDS011;26233;51.894;10.192;2023-09-19T11:51:09;2.63;;;1.90;;
40533;SDS011;26233;51.894;10.192;2023-09-19T11:53:44;2.47;;;1.65;;
40533;SDS011;26233;51.894;10.192;2023-09-19T11:56:14;3.15;;;2.20;;
40533;SDS011;26233;51.894;10.192;2023-09-19T11:58:44;2.22;;;1.80;;
40533;SDS011;26233;51.894;10.192;2023-09-19T12:01:14;2.33;;;1.63;;
40533;SDS011;26233;51.894;10.192;2023-09-19T12:03:46;2.65;;;1.80;;
40533;SDS011;26233;51.894;10.192;2023-09-19T12:06:19;4.20;;;2.00;;
40533;SDS011;26233;51.894;10.192;2023-09-19T12:08:48;2.88;;;1.73;;
40533;SDS011;26233;51.894;10.192;2023-09-19T12:11:16;3.13;;;1.92;;
40533;SDS011;26233;51.894;10.192;2023-09-19T12:13:46;3.08;;;1.73;;
40533;SDS011;26233;51.894;10.192;2023-09-19T12:16:15;2.55;;;1.83;;
40533;SDS011;26233;51.894;10.192;2023-09-19T12:18:46;3.35;;;1.90;;
40533;SDS011;26233;51.894;10.192;2023-09-19T12:21:25;3.88;;;2.10;;
40533;SDS011;26233;51.894;10.192;2023-09-19T12:24:06;2.95;;;1.60;;
40533;SDS011;26233;51.894;10.192;2023-09-19T12:26:39;3.50;;;1.90;;
40533;SDS011;26233;51.894;10.192;2023-09-19T12:29:19;2.83;;;1.77;;
40533;SDS011;26233;51.894;10.192;2023-09-19T12:31:48;2.80;;;1.70;;
40533;SDS011;26233;51.894;10.192;2023-09-19T12:34:21;2.55;;;1.80;;
40533;SDS011;26233;51.894;10.192;2023-09-19T12:37:06;2.70;;;2.05;;
40533;SDS011;26233;51.894;10.192;2023-09-19T12:39:44;2.33;;;1.70;;
40533;SDS011;26233;51.894;10.192;2023-09-19T12:42:14;3.53;;;1.90;;
40533;SDS011;26233;51.894;10.192;2023-09-19T12:44:44;6.38;;;2.17;;
40533;SDS011;26233;51.894;10.192;2023-09-19T12:47:13;3.45;;;2.10;;
40533;SDS011;26233;51.894;10.192;2023-09-19T12:52:38;2.72;;;1.75;;
40533;SDS011;26233;51.894;10.192;2023-09-19T12:55:07;2.38;;;1.92;;
40533;SDS011;26233;51.894;10.192;2023-09-19T12:57:54;2.35;;;1.83;;
40533;SDS011;26233;51.894;10.192;2023-09-19T13:00:36;2.00;;;1.80;;
40533;SDS011;26233;51.894;10.192;2023-09-19T13:03:10;2.33;;;1.80;;
40533;SDS011;26233;51.894;10.192;2023-09-19T13:05:56;3.63;;;2.10;;
40533;SDS011;26233;51.894;10.192;2023-09-19T13:08:26;2.10;;;1.70;;
40533;SDS011;26233;51.894;10.192;2023-09-19T13:11:07;1.90;;;1.70;;
40533;SDS011;26233;51.894;10.192;2023-09-19T13:13:38;3.00;;;1.95;;
40533;SDS011;26233;51.894;10.192;2023-09-19T13:16:10;2.83;;;1.63;;
40533;SDS011;26233;51.894;10.192;2023-09-19T13:18:44;2.55;;;1.80;;
40533;SDS011;26233;51.894;10.192;2023-09-19T13:21:16;3.22;;;1.98;;
40533;SDS011;26233;51.894;10.192;2023-09-19T13:23:50;3.22;;;1.85;;
40533;SDS011;26233;51.894;10.192;2023-09-19T13:26:19;3.85;;;2.03;;
40533;SDS011;26233;51.894;10.192;2023-09-19T13:28:47;2.35;;;1.92;;
40533;SDS011;26233;51.894;10.192;2023-09-19T13:31:16;3.53;;;2.05;;
40533;SDS011;26233;51.894;10.192;2023-09-19T13:33:44;3.03;;;2.00;;
40533;SDS011;26233;51.894;10.192;2023-09-19T13:36:11;2.90;;;1.95;;
40533;SDS011;26233;51.894;10.192;2023-09-19T13:38:39;2.35;;;1.90;;
40533;SDS011;26233;51.894;10.192;2023-09-19T13:41:08;3.97;;;1.85;;
40533;SDS011;26233;51.894;10.192;2023-09-19T13:43:36;2.40;;;2.08;;
40533;SDS011;26233;51.894;10.192;2023-09-19T13:46:03;4.28;;;2.38;;
40533;SDS011;26233;51.894;10.192;2023-09-19T13:48:33;2.80;;;2.10;;
40533;SDS011;26233;51.894;10.192;2023-09-19T13:51:01;2.97;;;2.00;;
40533;SDS011;26233;51.894;10.192;2023-09-19T13:53:29;2.72;;;1.92;;
40533;SDS011;26233;51.894;10.192;2023-09-19T13:55:56;2.90;;;2.28;;
40533;SDS011;26233;51.894;10.192;2023-09-19T13:58:24;2.72;;;1.98;;
40533;SDS011;26233;51.894;10.192;2023-09-19T14:00:52;2.75;;;2.10;;
40533;SDS011;26233;51.894;10.192;2023-09-19T14:03:21;3.90;;;2.10;;
40533;SDS011;26233;51.894;10.192;2023-09-19T14:05:50;2.33;;;1.98;;
40533;SDS011;26233;51.894;10.192;2023-09-19T14:08:17;2.78;;;2.00;;
40533;SDS011;26233;51.894;10.192;2023-09-19T14:10:44;4.07;;;1.92;;
40533;SDS011;26233;51.894;10.192;2023-09-19T14:13:11;3.95;;;1.95;;
40533;SDS011;26233;51.894;10.192;2023-09-19T14:15:40;2.75;;;1.90;;
40533;SDS011;26233;51.894;10.192;2023-09-19T14:18:07;5.55;;;2.05;;
40533;SDS011;26233;51.894;10.192;2023-09-19T14:20:37;2.58;;;1.83;;
40533;SDS011;26233;51.894;10.192;2023-09-19T14:23:07;2.15;;;1.65;;
40533;SDS011;26233;51.894;10.192;2023-09-19T14:25:35;2.80;;;1.75;;
40533;SDS011;26233;51.894;10.192;2023-09-19T14:28:03;2.63;;;1.80;;
40533;SDS011;26233;51.894;10.192;2023-09-19T14:30:33;2.13;;;1.60;;
40533;SDS011;26233;51.894;10.192;2023-09-19T14:33:02;3.42;;;1.88;;
40533;SDS011;26233;51.894;10.192;2023-09-19T14:35:30;2.65;;;1.80;;
40533;SDS011;26233;51.894;10.192;2023-09-19T14:37:57;4.07;;;1.73;;
40533;SDS011;26233;51.894;10.192;2023-09-19T14:40:25;2.10;;;1.80;;
40533;SDS011;26233;51.894;10.192;2023-09-19T14:42:52;2.50;;;1.55;;
40533;SDS011;26233;51.894;10.192;2023-09-19T14:45:19;3.22;;;1.77;;
40533;SDS011;26233;51.894;10.192;2023-09-19T14:47:46;2.13;;;1.73;;
40533;SDS011;26233;51.894;10.192;2023-09-19T14:50:13;4.03;;;1.73;;
40533;SDS011;26233;51.894;10.192;2023-09-19T14:52:40;2.75;;;1.50;;
40533;SDS011;26233;51.894;10.192;2023-09-19T14:55:07;2.50;;;1.67;;
40533;SDS011;26233;51.894;10.192;2023-09-19T14:57:40;2.47;;;1.70;;
40533;SDS011;26233;51.894;10.192;2023-09-19T15:00:10;3.20;;;1.60;;
40533;SDS011;26233;51.894;10.192;2023-09-19T15:02:38;1.88;;;1.38;;
40533;SDS011;26233;51.894;10.192;2023-09-19T15:05:06;2.40;;;1.27;;
40533;SDS011;26233;51.894;10.192;2023-09-19T15:07:34;2.92;;;1.35;;
40533;SDS011;26233;51.894;10.192;2023-09-19T15:10:03;3.10;;;1.50;;
40533;SDS011;26233;51.894;10.192;2023-09-19T15:12:34;1.98;;;1.42;;
40533;SDS011;26233;51.894;10.192;2023-09-19T15:15:04;2.25;;;1.40;;
40533;SDS011;26233;51.894;10.192;2023-09-19T15:17:33;2.30;;;1.45;;
40533;SDS011;26233;51.894;10.192;2023-09-19T15:20:00;2.00;;;1.55;;